Dauntless Aviation
Airports Europe Poland
EPKT
KTW

Katowice International Airport

Katowice, POLAND

Airport Info
Suggest Updated Information for this Airport

Location

Latitude / Longitude: 50°28'27"N / 19°4'47"E
  50°28.458'N / 19°4.8'E
  50.4743 / 19.0800

Nearby radio navigation aids

PT KATOWICE NDB. 267.4° 2.7nm from PT to field.

Runway Information

Runway 09 /27

Dimensions: 9186 x 197 ft.
Surface: ASP
 
Runway 09
Runway 27
Latitude: 50.474306 50.474219
Longitude: 19.054642 19.094069
Elevation: 970 ft. 970 ft.
Runway true heading: 88.2 268.2
 

Instrument Procedures

  Aerodrome Chart
  Aircraft Parking Chart - Apron 1
  Aircraft Parking Chart - Apron 2/3

STARs (Standard Terminal Arrivals)

  STAR Rwy 09
  STAR Rwy 27

IAPs (Instrument Approach Procedures)

  ILS CAT II or LOC Rwy 27 (CAT A/B/C/D)
  VOR Rwy 09 (CAT A/B/C/D)
  VOR Rwy 27 (CAT A/B/C/D)
  RNAV (GNSS) Rwy 09 (CAT A/B/C/D)
  RNAV (GNSS) Rwy 27 (CAT A/B/C/D)
  Visual Operation Chart
  Aerodrome Obstacle Chart - Rwy 09/27
  Precision Approach Terrain Chart - Rwy 27
  Aerodrome Information (Textual)

Departure Procedures

  SID Rwy 09
  SID Rwy 27
Satellite photo at:
Airport distance calculator
From:
Weather Reports

METAR

EPKT

EPKT 251230Z 13004KT 090V180 9999 FEW019 14/13 Q1013
EPKK
36.9nm E
EPKK 251230Z 08009KT 5000 BR BKN005 11/10 Q1013

TAF

EPKT
TAF EPKT 251130Z 2512/2612 12005KT 8000 BKN006 BECMG 2512/2514 SCT013 BECMG 2519/2521 3000 BR BECMG 2600/2603 0300 FG OVC003 TEMPO 2600/2609 0100 FG OVC001 BECMG 2609/2611 CAVOK
EPKK
36.9nm E
TAF EPKK 251130Z 2512/2612 06006KT 4000 BR OVC004 BECMG 2512/2514 CAVOK BECMG 2516/2519 0600 FG TEMPO 2520/2609 0100 FG OVC001 BECMG 2609/2611 CAVOK
Safelog

 

Dauntless Aviation

© 2007-2020 Dauntless Aviation, all rights reserved
Information provided via PilotNav comes from a variety of official and unofficial data sources. As errors are possible, do not use PilotNav for primary flight planning purposes. Verify any information that you receive via PilotNav with current and canonical charts and other official documents. The material in this database is subject to database copyrights held by Dauntless Aviation and may not be copied without the express permission of Dauntless Aviation - licenses for use of part of all of this data are available for purchase; enquire via the Dauntless Aviation helpdesk. A number of mechanisms and markers exist in the database to protect against and identify infringement / copyright. Automated queries against this website are strictly prohibited, and all activity is logged and analyzed.